sensor_id;sensor_type;location;lat;lon;timestamp;temperature;humidity
24802;DHT22;12898;50.520;12.152;2023-12-20T00:01:49;3.40;99.90
24802;DHT22;12898;50.520;12.152;2023-12-20T00:04:14;3.40;99.90
24802;DHT22;12898;50.520;12.152;2023-12-20T00:06:41;3.50;99.90
24802;DHT22;12898;50.520;12.152;2023-12-20T00:09:06;3.40;99.90
24802;DHT22;12898;50.520;12.152;2023-12-20T00:11:32;3.50;99.90
24802;DHT22;12898;50.520;12.152;2023-12-20T00:13:58;3.50;99.90
24802;DHT22;12898;50.520;12.152;2023-12-20T00:16:23;3.40;99.90
24802;DHT22;12898;50.520;12.152;2023-12-20T00:18:49;3.40;99.90
24802;DHT22;12898;50.520;12.152;2023-12-20T00:21:15;3.40;99.90
24802;DHT22;12898;50.520;12.152;2023-12-20T00:23:41;3.40;99.90
24802;DHT22;12898;50.520;12.152;2023-12-20T00:26:06;3.40;99.90
24802;DHT22;12898;50.520;12.152;2023-12-20T00:28:32;3.40;99.90
24802;DHT22;12898;50.520;12.152;2023-12-20T00:30:58;3.40;99.90
24802;DHT22;12898;50.520;12.152;2023-12-20T00:33:24;3.40;99.90
24802;DHT22;12898;50.520;12.152;2023-12-20T00:35:49;3.40;99.90
24802;DHT22;12898;50.520;12.152;2023-12-20T00:38:15;3.40;99.90
24802;DHT22;12898;50.520;12.152;2023-12-20T00:40:41;3.40;99.90
24802;DHT22;12898;50.520;12.152;2023-12-20T00:43:07;3.40;99.90
24802;DHT22;12898;50.520;12.152;2023-12-20T00:45:32;3.40;99.90
24802;DHT22;12898;50.520;12.152;2023-12-20T00:47:58;3.40;99.90
24802;DHT22;12898;50.520;12.152;2023-12-20T00:50:24;3.40;99.90
24802;DHT22;12898;50.520;12.152;2023-12-20T00:52:50;3.40;99.90
24802;DHT22;12898;50.520;12.152;2023-12-20T00:55:16;3.40;99.90
24802;DHT22;12898;50.520;12.152;2023-12-20T00:57:42;3.40;99.90
24802;DHT22;12898;50.520;12.152;2023-12-20T01:00:08;3.40;99.90
24802;DHT22;12898;50.520;12.152;2023-12-20T01:02:36;3.40;99.90
24802;DHT22;12898;50.520;12.152;2023-12-20T01:05:02;3.40;99.90
24802;DHT22;12898;50.520;12.152;2023-12-20T01:07:28;3.40;99.90
24802;DHT22;12898;50.520;12.152;2023-12-20T01:09:54;3.40;99.90
24802;DHT22;12898;50.520;12.152;2023-12-20T01:12:20;3.40;99.90
24802;DHT22;12898;50.520;12.152;2023-12-20T01:14:46;3.40;99.90
24802;DHT22;12898;50.520;12.152;2023-12-20T01:17:12;3.40;99.90
24802;DHT22;12898;50.520;12.152;2023-12-20T01:19:38;3.40;99.90
24802;DHT22;12898;50.520;12.152;2023-12-20T01:22:04;3.40;99.90
24802;DHT22;12898;50.520;12.152;2023-12-20T01:24:29;3.40;99.90
24802;DHT22;12898;50.520;12.152;2023-12-20T01:26:55;3.30;99.90
24802;DHT22;12898;50.520;12.152;2023-12-20T01:29:21;3.40;99.90
24802;DHT22;12898;50.520;12.152;2023-12-20T01:31:47;3.30;99.90
24802;DHT22;12898;50.520;12.152;2023-12-20T01:34:13;3.40;99.90
24802;DHT22;12898;50.520;12.152;2023-12-20T01:36:38;3.30;99.90
24802;DHT22;12898;50.520;12.152;2023-12-20T01:39:04;3.30;99.90
24802;DHT22;12898;50.520;12.152;2023-12-20T01:41:30;3.30;99.90
24802;DHT22;12898;50.520;12.152;2023-12-20T01:43:55;3.30;99.90
24802;DHT22;12898;50.520;12.152;2023-12-20T01:46:21;3.30;99.90
24802;DHT22;12898;50.520;12.152;2023-12-20T01:48:48;3.30;99.90
24802;DHT22;12898;50.520;12.152;2023-12-20T01:51:14;3.30;99.90
24802;DHT22;12898;50.520;12.152;2023-12-20T01:53:41;3.30;99.90
24802;DHT22;12898;50.520;12.152;2023-12-20T01:56:08;3.30;99.90
24802;DHT22;12898;50.520;12.152;2023-12-20T01:58:34;3.20;99.90
24802;DHT22;12898;50.520;12.152;2023-12-20T02:01:00;3.20;99.90
24802;DHT22;12898;50.520;12.152;2023-12-20T02:03:26;3.20;99.90
24802;DHT22;12898;50.520;12.152;2023-12-20T02:05:52;3.20;99.90
24802;DHT22;12898;50.520;12.152;2023-12-20T02:08:18;3.20;99.90
24802;DHT22;12898;50.520;12.152;2023-12-20T02:10:44;3.20;99.90
24802;DHT22;12898;50.520;12.152;2023-12-20T02:13:10;3.20;99.90
24802;DHT22;12898;50.520;12.152;2023-12-20T02:15:36;3.20;99.90
24802;DHT22;12898;50.520;12.152;2023-12-20T02:18:03;3.20;99.90
24802;DHT22;12898;50.520;12.152;2023-12-20T02:20:30;3.10;99.90
24802;DHT22;12898;50.520;12.152;2023-12-20T02:22:55;3.10;99.90
24802;DHT22;12898;50.520;12.152;2023-12-20T02:25:21;3.10;99.90
24802;DHT22;12898;50.520;12.152;2023-12-20T02:27:48;3.10;99.90
24802;DHT22;12898;50.520;12.152;2023-12-20T02:30:15;3.10;99.90
24802;DHT22;12898;50.520;12.152;2023-12-20T02:32:40;3.10;99.90
24802;DHT22;12898;50.520;12.152;2023-12-20T02:35:06;3.10;99.90
24802;DHT22;12898;50.520;12.152;2023-12-20T02:37:33;3.10;99.90
24802;DHT22;12898;50.520;12.152;2023-12-20T02:39:59;3.10;99.90
24802;DHT22;12898;50.520;12.152;2023-12-20T02:42:25;3.10;99.90
24802;DHT22;12898;50.520;12.152;2023-12-20T02:44:50;3.10;99.90
24802;DHT22;12898;50.520;12.152;2023-12-20T02:47:16;3.10;99.90
24802;DHT22;12898;50.520;12.152;2023-12-20T02:49:42;3.00;99.90
24802;DHT22;12898;50.520;12.152;2023-12-20T02:52:08;3.10;99.90
24802;DHT22;12898;50.520;12.152;2023-12-20T02:54:33;3.00;99.90
24802;DHT22;12898;50.520;12.152;2023-12-20T02:56:59;3.10;99.90
24802;DHT22;12898;50.520;12.152;2023-12-20T02:59:25;3.00;99.90
24802;DHT22;12898;50.520;12.152;2023-12-20T03:01:51;3.10;99.90
24802;DHT22;12898;50.520;12.152;2023-12-20T03:04:16;3.00;99.90
24802;DHT22;12898;50.520;12.152;2023-12-20T03:06:42;3.00;99.90
24802;DHT22;12898;50.520;12.152;2023-12-20T03:09:08;3.00;99.90
24802;DHT22;12898;50.520;12.152;2023-12-20T03:11:33;3.00;99.90
24802;DHT22;12898;50.520;12.152;2023-12-20T03:13:59;3.00;99.90
24802;DHT22;12898;50.520;12.152;2023-12-20T03:16:25;3.00;99.90
24802;DHT22;12898;50.520;12.152;2023-12-20T03:18:51;3.00;99.90
24802;DHT22;12898;50.520;12.152;2023-12-20T03:21:16;3.00;99.90
24802;DHT22;12898;50.520;12.152;2023-12-20T03:23:42;3.00;99.90
24802;DHT22;12898;50.520;12.152;2023-12-20T03:26:08;3.00;99.90
24802;DHT22;12898;50.520;12.152;2023-12-20T03:28:34;3.00;99.90
24802;DHT22;12898;50.520;12.152;2023-12-20T03:31:01;3.00;99.90
24802;DHT22;12898;50.520;12.152;2023-12-20T03:33:28;3.00;99.90
24802;DHT22;12898;50.520;12.152;2023-12-20T03:35:54;3.00;99.90
24802;DHT22;12898;50.520;12.152;2023-12-20T03:38:20;3.00;99.90
24802;DHT22;12898;50.520;12.152;2023-12-20T03:40:46;3.00;99.90
24802;DHT22;12898;50.520;12.152;2023-12-20T03:43:12;3.00;99.90
24802;DHT22;12898;50.520;12.152;2023-12-20T03:45:38;3.00;99.90
24802;DHT22;12898;50.520;12.152;2023-12-20T03:48:05;3.00;99.90
24802;DHT22;12898;50.520;12.152;2023-12-20T03:50:31;3.00;99.90
24802;DHT22;12898;50.520;12.152;2023-12-20T03:52:56;3.00;99.90
24802;DHT22;12898;50.520;12.152;2023-12-20T03:55:22;3.00;99.90
24802;DHT22;12898;50.520;12.152;2023-12-20T03:57:48;3.00;99.90
24802;DHT22;12898;50.520;12.152;2023-12-20T04:00:14;3.00;99.90
24802;DHT22;12898;50.520;12.152;2023-12-20T04:02:42;3.00;99.90
24802;DHT22;12898;50.520;12.152;2023-12-20T04:05:08;3.00;99.90
24802;DHT22;12898;50.520;12.152;2023-12-20T04:07:38;3.00;99.90
24802;DHT22;12898;50.520;12.152;2023-12-20T04:10:04;3.00;99.90
24802;DHT22;12898;50.520;12.152;2023-12-20T04:12:31;3.00;99.90
24802;DHT22;12898;50.520;12.152;2023-12-20T04:14:57;3.00;99.90
24802;DHT22;12898;50.520;12.152;2023-12-20T04:17:23;3.00;99.90
24802;DHT22;12898;50.520;12.152;2023-12-20T04:19:52;3.00;99.90
24802;DHT22;12898;50.520;12.152;2023-12-20T04:22:18;3.00;99.90
24802;DHT22;12898;50.520;12.152;2023-12-20T04:24:44;3.00;99.90
24802;DHT22;12898;50.520;12.152;2023-12-20T04:27:10;3.00;99.90
24802;DHT22;12898;50.520;12.152;2023-12-20T04:29:37;3.00;99.90
24802;DHT22;12898;50.520;12.152;2023-12-20T04:32:03;3.00;99.90
24802;DHT22;12898;50.520;12.152;2023-12-20T04:34:29;3.00;99.90
24802;DHT22;12898;50.520;12.152;2023-12-20T04:36:55;3.00;99.90
24802;DHT22;12898;50.520;12.152;2023-12-20T04:39:23;3.00;99.90
24802;DHT22;12898;50.520;12.152;2023-12-20T04:41:49;3.00;99.90
24802;DHT22;12898;50.520;12.152;2023-12-20T04:44:15;3.00;99.90
24802;DHT22;12898;50.520;12.152;2023-12-20T04:46:41;3.00;99.90
24802;DHT22;12898;50.520;12.152;2023-12-20T04:49:07;3.00;99.90
24802;DHT22;12898;50.520;12.152;2023-12-20T04:51:33;3.00;99.90
24802;DHT22;12898;50.520;12.152;2023-12-20T04:54:00;3.00;99.90
24802;DHT22;12898;50.520;12.152;2023-12-20T04:56:26;3.00;99.90
24802;DHT22;12898;50.520;12.152;2023-12-20T04:58:52;3.00;99.90
24802;DHT22;12898;50.520;12.152;2023-12-20T05:01:17;3.00;99.90
24802;DHT22;12898;50.520;12.152;2023-12-20T05:03:43;3.00;99.90
24802;DHT22;12898;50.520;12.152;2023-12-20T05:06:10;3.00;99.90
24802;DHT22;12898;50.520;12.152;2023-12-20T05:08:35;3.00;99.90
24802;DHT22;12898;50.520;12.152;2023-12-20T05:11:02;3.00;99.90
24802;DHT22;12898;50.520;12.152;2023-12-20T05:13:27;3.00;99.90
24802;DHT22;12898;50.520;12.152;2023-12-20T05:15:53;3.00;99.90
24802;DHT22;12898;50.520;12.152;2023-12-20T05:18:20;3.00;99.90
24802;DHT22;12898;50.520;12.152;2023-12-20T05:20:47;3.00;99.90
24802;DHT22;12898;50.520;12.152;2023-12-20T05:23:13;3.00;99.90
24802;DHT22;12898;50.520;12.152;2023-12-20T05:25:38;3.00;99.90
24802;DHT22;12898;50.520;12.152;2023-12-20T05:28:04;3.00;99.90
24802;DHT22;12898;50.520;12.152;2023-12-20T05:30:30;3.00;99.90
24802;DHT22;12898;50.520;12.152;2023-12-20T05:32:56;3.00;99.90
24802;DHT22;12898;50.520;12.152;2023-12-20T05:35:22;3.10;99.90
24802;DHT22;12898;50.520;12.152;2023-12-20T05:37:49;3.10;99.90
24802;DHT22;12898;50.520;12.152;2023-12-20T05:40:15;3.10;99.90
24802;DHT22;12898;50.520;12.152;2023-12-20T05:42:41;3.10;99.90
24802;DHT22;12898;50.520;12.152;2023-12-20T05:45:07;3.10;99.90
24802;DHT22;12898;50.520;12.152;2023-12-20T05:47:33;3.10;99.90
24802;DHT22;12898;50.520;12.152;2023-12-20T05:49:59;3.10;99.90
24802;DHT22;12898;50.520;12.152;2023-12-20T05:52:24;3.10;99.90
24802;DHT22;12898;50.520;12.152;2023-12-20T05:54:50;3.10;99.90
24802;DHT22;12898;50.520;12.152;2023-12-20T05:57:16;3.10;99.90
24802;DHT22;12898;50.520;12.152;2023-12-20T05:59:41;3.10;99.90
24802;DHT22;12898;50.520;12.152;2023-12-20T06:02:07;3.10;99.90
24802;DHT22;12898;50.520;12.152;2023-12-20T06:04:33;3.10;99.90
24802;DHT22;12898;50.520;12.152;2023-12-20T06:06:59;3.10;99.90
24802;DHT22;12898;50.520;12.152;2023-12-20T06:09:26;3.10;99.90
24802;DHT22;12898;50.520;12.152;2023-12-20T06:11:52;3.20;99.90
24802;DHT22;12898;50.520;12.152;2023-12-20T06:14:18;3.20;99.90
24802;DHT22;12898;50.520;12.152;2023-12-20T06:16:45;3.20;99.90
24802;DHT22;12898;50.520;12.152;2023-12-20T06:19:11;3.20;99.90
24802;DHT22;12898;50.520;12.152;2023-12-20T06:21:37;3.20;99.90
24802;DHT22;12898;50.520;12.152;2023-12-20T06:24:03;3.20;99.90
24802;DHT22;12898;50.520;12.152;2023-12-20T06:26:29;3.20;99.90
24802;DHT22;12898;50.520;12.152;2023-12-20T06:28:55;3.20;99.90
24802;DHT22;12898;50.520;12.152;2023-12-20T06:31:20;3.20;99.90
24802;DHT22;12898;50.520;12.152;2023-12-20T06:33:46;3.30;99.90
24802;DHT22;12898;50.520;12.152;2023-12-20T06:36:13;3.30;99.90
24802;DHT22;12898;50.520;12.152;2023-12-20T06:38:39;3.30;99.90
24802;DHT22;12898;50.520;12.152;2023-12-20T06:41:05;3.30;99.90
24802;DHT22;12898;50.520;12.152;2023-12-20T06:43:31;3.30;99.90
24802;DHT22;12898;50.520;12.152;2023-12-20T06:46:00;3.30;99.90
24802;DHT22;12898;50.520;12.152;2023-12-20T06:48:26;3.30;99.90
24802;DHT22;12898;50.520;12.152;2023-12-20T06:50:52;3.30;99.90
24802;DHT22;12898;50.520;12.152;2023-12-20T06:53:18;3.30;99.90
24802;DHT22;12898;50.520;12.152;2023-12-20T06:55:43;3.30;99.90
24802;DHT22;12898;50.520;12.152;2023-12-20T06:58:09;3.30;99.90
24802;DHT22;12898;50.520;12.152;2023-12-20T07:00:35;3.40;99.90
24802;DHT22;12898;50.520;12.152;2023-12-20T07:03:01;3.40;99.90
24802;DHT22;12898;50.520;12.152;2023-12-20T07:05:27;3.40;99.90
24802;DHT22;12898;50.520;12.152;2023-12-20T07:07:52;3.40;99.90
24802;DHT22;12898;50.520;12.152;2023-12-20T07:10:19;3.40;99.90
24802;DHT22;12898;50.520;12.152;2023-12-20T07:12:44;3.40;99.90
24802;DHT22;12898;50.520;12.152;2023-12-20T07:15:11;3.40;99.90
24802;DHT22;12898;50.520;12.152;2023-12-20T07:17:37;3.40;99.90
24802;DHT22;12898;50.520;12.152;2023-12-20T07:20:03;3.40;99.90
24802;DHT22;12898;50.520;12.152;2023-12-20T07:22:30;3.40;99.90
24802;DHT22;12898;50.520;12.152;2023-12-20T07:24:59;3.40;99.90
24802;DHT22;12898;50.520;12.152;2023-12-20T07:27:26;3.40;99.90
24802;DHT22;12898;50.520;12.152;2023-12-20T07:29:52;3.40;99.90
24802;DHT22;12898;50.520;12.152;2023-12-20T07:32:18;3.40;99.90
24802;DHT22;12898;50.520;12.152;2023-12-20T07:34:44;3.50;99.90
24802;DHT22;12898;50.520;12.152;2023-12-20T07:37:10;3.50;99.90
24802;DHT22;12898;50.520;12.152;2023-12-20T07:39:38;3.50;99.90
24802;DHT22;12898;50.520;12.152;2023-12-20T07:42:05;3.50;99.90
24802;DHT22;12898;50.520;12.152;2023-12-20T07:44:32;3.50;99.90
24802;DHT22;12898;50.520;12.152;2023-12-20T07:46:57;3.50;99.90
24802;DHT22;12898;50.520;12.152;2023-12-20T07:49:23;3.50;99.90
24802;DHT22;12898;50.520;12.152;2023-12-20T07:51:49;3.60;99.90
24802;DHT22;12898;50.520;12.152;2023-12-20T07:54:15;3.60;99.90
24802;DHT22;12898;50.520;12.152;2023-12-20T07:56:41;3.60;99.90
24802;DHT22;12898;50.520;12.152;2023-12-20T07:59:07;3.60;99.90
24802;DHT22;12898;50.520;12.152;2023-12-20T08:01:33;3.60;99.90
24802;DHT22;12898;50.520;12.152;2023-12-20T08:03:59;3.70;99.90
24802;DHT22;12898;50.520;12.152;2023-12-20T08:06:24;3.70;99.90
24802;DHT22;12898;50.520;12.152;2023-12-20T08:08:50;3.70;99.90
24802;DHT22;12898;50.520;12.152;2023-12-20T08:11:16;3.70;99.90
24802;DHT22;12898;50.520;12.152;2023-12-20T08:13:42;3.70;99.90
24802;DHT22;12898;50.520;12.152;2023-12-20T08:16:08;3.70;99.90
24802;DHT22;12898;50.520;12.152;2023-12-20T08:18:34;3.70;99.90
24802;DHT22;12898;50.520;12.152;2023-12-20T08:21:00;3.80;99.90
24802;DHT22;12898;50.520;12.152;2023-12-20T08:23:27;3.80;99.90
24802;DHT22;12898;50.520;12.152;2023-12-20T08:25:52;3.80;99.90
24802;DHT22;12898;50.520;12.152;2023-12-20T08:28:18;3.80;99.90
24802;DHT22;12898;50.520;12.152;2023-12-20T08:30:44;3.80;99.90
24802;DHT22;12898;50.520;12.152;2023-12-20T08:33:10;3.70;99.90
24802;DHT22;12898;50.520;12.152;2023-12-20T08:35:39;3.70;99.90
24802;DHT22;12898;50.520;12.152;2023-12-20T08:38:05;3.70;99.90
24802;DHT22;12898;50.520;12.152;2023-12-20T08:40:31;3.60;99.90
24802;DHT22;12898;50.520;12.152;2023-12-20T08:42:57;3.60;99.90
24802;DHT22;12898;50.520;12.152;2023-12-20T08:45:23;3.50;99.90
24802;DHT22;12898;50.520;12.152;2023-12-20T08:47:50;3.50;99.90
24802;DHT22;12898;50.520;12.152;2023-12-20T08:50:15;3.50;99.90
24802;DHT22;12898;50.520;12.152;2023-12-20T08:52:41;3.50;99.90
24802;DHT22;12898;50.520;12.152;2023-12-20T08:55:08;3.50;99.90
24802;DHT22;12898;50.520;12.152;2023-12-20T08:57:35;3.50;99.90
24802;DHT22;12898;50.520;12.152;2023-12-20T09:00:01;3.50;99.90
24802;DHT22;12898;50.520;12.152;2023-12-20T09:02:26;3.50;99.90
24802;DHT22;12898;50.520;12.152;2023-12-20T09:04:52;3.60;99.90
24802;DHT22;12898;50.520;12.152;2023-12-20T09:07:27;3.70;99.90
24802;DHT22;12898;50.520;12.152;2023-12-20T09:09:56;3.80;99.90
24802;DHT22;12898;50.520;12.152;2023-12-20T09:12:22;3.90;99.90
24802;DHT22;12898;50.520;12.152;2023-12-20T09:14:49;4.00;99.90
24802;DHT22;12898;50.520;12.152;2023-12-20T09:17:16;4.10;99.90
24802;DHT22;12898;50.520;12.152;2023-12-20T09:19:43;4.10;99.90
24802;DHT22;12898;50.520;12.152;2023-12-20T09:22:12;4.10;99.90
24802;DHT22;12898;50.520;12.152;2023-12-20T09:24:38;4.10;99.90
24802;DHT22;12898;50.520;12.152;2023-12-20T09:27:04;4.20;99.90
24802;DHT22;12898;50.520;12.152;2023-12-20T09:29:31;4.20;99.90
24802;DHT22;12898;50.520;12.152;2023-12-20T09:31:57;4.20;99.90
24802;DHT22;12898;50.520;12.152;2023-12-20T09:34:23;4.20;99.90
24802;DHT22;12898;50.520;12.152;2023-12-20T09:36:49;4.20;99.90
24802;DHT22;12898;50.520;12.152;2023-12-20T09:39:19;4.20;99.90
24802;DHT22;12898;50.520;12.152;2023-12-20T09:42:11;4.20;99.90
24802;DHT22;12898;50.520;12.152;2023-12-20T09:44:36;4.20;99.90
24802;DHT22;12898;50.520;12.152;2023-12-20T09:47:03;4.20;99.90
24802;DHT22;12898;50.520;12.152;2023-12-20T09:49:30;4.30;99.90
24802;DHT22;12898;50.520;12.152;2023-12-20T09:51:56;4.30;99.90
24802;DHT22;12898;50.520;12.152;2023-12-20T09:54:23;4.30;99.90
24802;DHT22;12898;50.520;12.152;2023-12-20T09:56:49;4.30;99.90
24802;DHT22;12898;50.520;12.152;2023-12-20T09:59:15;4.40;99.90
24802;DHT22;12898;50.520;12.152;2023-12-20T10:01:42;4.40;99.90
24802;DHT22;12898;50.520;12.152;2023-12-20T10:04:09;4.40;99.90
24802;DHT22;12898;50.520;12.152;2023-12-20T10:06:44;4.40;99.90
24802;DHT22;12898;50.520;12.152;2023-12-20T10:09:10;4.30;99.90
24802;DHT22;12898;50.520;12.152;2023-12-20T10:11:37;4.30;99.90
24802;DHT22;12898;50.520;12.152;2023-12-20T10:14:07;4.30;99.90
24802;DHT22;12898;50.520;12.152;2023-12-20T10:16:33;4.30;99.90
24802;DHT22;12898;50.520;12.152;2023-12-20T10:19:00;4.40;99.90
24802;DHT22;12898;50.520;12.152;2023-12-20T10:21:29;4.50;99.90
24802;DHT22;12898;50.520;12.152;2023-12-20T10:23:56;4.50;99.90
24802;DHT22;12898;50.520;12.152;2023-12-20T10:26:23;4.60;99.90
24802;DHT22;12898;50.520;12.152;2023-12-20T10:28:59;4.70;99.90
24802;DHT22;12898;50.520;12.152;2023-12-20T10:31:32;4.80;99.90
24802;DHT22;12898;50.520;12.152;2023-12-20T10:34:01;4.80;99.90
24802;DHT22;12898;50.520;12.152;2023-12-20T10:36:29;4.80;99.90
24802;DHT22;12898;50.520;12.152;2023-12-20T10:38:57;4.80;99.90
24802;DHT22;12898;50.520;12.152;2023-12-20T10:41:31;4.70;99.90
24802;DHT22;12898;50.520;12.152;2023-12-20T10:44:02;4.70;99.90
24802;DHT22;12898;50.520;12.152;2023-12-20T10:46:31;4.70;99.90
24802;DHT22;12898;50.520;12.152;2023-12-20T10:49:02;4.70;99.90
24802;DHT22;12898;50.520;12.152;2023-12-20T10:51:28;4.60;99.90
24802;DHT22;12898;50.520;12.152;2023-12-20T10:53:55;4.60;99.90
24802;DHT22;12898;50.520;12.152;2023-12-20T10:56:22;4.50;99.90
24802;DHT22;12898;50.520;12.152;2023-12-20T10:58:51;4.50;99.90
24802;DHT22;12898;50.520;12.152;2023-12-20T11:01:17;4.50;99.90
24802;DHT22;12898;50.520;12.152;2023-12-20T11:03:53;4.60;99.90
24802;DHT22;12898;50.520;12.152;2023-12-20T11:14:46;5.10;99.90
24802;DHT22;12898;50.520;12.152;2023-12-20T11:17:13;5.10;99.90
24802;DHT22;12898;50.520;12.152;2023-12-20T11:22:21;5.10;99.90
24802;DHT22;12898;50.520;12.152;2023-12-20T11:24:48;5.00;99.90
24802;DHT22;12898;50.520;12.152;2023-12-20T11:27:14;5.00;99.90
24802;DHT22;12898;50.520;12.152;2023-12-20T11:29:41;4.90;99.90
24802;DHT22;12898;50.520;12.152;2023-12-20T11:34:58;5.40;99.90
24802;DHT22;12898;50.520;12.152;2023-12-20T11:37:34;5.60;99.90
24802;DHT22;12898;50.520;12.152;2023-12-20T11:42:49;6.00;99.90
24802;DHT22;12898;50.520;12.152;2023-12-20T11:45:18;6.20;99.90
24802;DHT22;12898;50.520;12.152;2023-12-20T11:47:49;6.20;99.90
24802;DHT22;12898;50.520;12.152;2023-12-20T11:50:19;6.30;99.90
24802;DHT22;12898;50.520;12.152;2023-12-20T11:52:45;6.10;99.90
24802;DHT22;12898;50.520;12.152;2023-12-20T11:55:11;6.00;99.90
24802;DHT22;12898;50.520;12.152;2023-12-20T11:57:37;5.80;99.90
24802;DHT22;12898;50.520;12.152;2023-12-20T12:00:03;5.60;99.90
24802;DHT22;12898;50.520;12.152;2023-12-20T12:02:30;5.50;99.90
24802;DHT22;12898;50.520;12.152;2023-12-20T12:04:56;5.40;99.90
24802;DHT22;12898;50.520;12.152;2023-12-20T12:07:24;5.50;99.90
24802;DHT22;12898;50.520;12.152;2023-12-20T12:09:50;5.50;99.90
24802;DHT22;12898;50.520;12.152;2023-12-20T12:12:17;5.40;99.90
24802;DHT22;12898;50.520;12.152;2023-12-20T12:14:45;5.40;99.90
24802;DHT22;12898;50.520;12.152;2023-12-20T12:17:12;5.50;99.90
24802;DHT22;12898;50.520;12.152;2023-12-20T12:19:41;5.80;99.90
24802;DHT22;12898;50.520;12.152;2023-12-20T12:22:12;6.00;99.90
24802;DHT22;12898;50.520;12.152;2023-12-20T12:24:43;6.20;99.90
24802;DHT22;12898;50.520;12.152;2023-12-20T12:27:10;6.30;99.90
24802;DHT22;12898;50.520;12.152;2023-12-20T12:29:37;6.40;99.90
24802;DHT22;12898;50.520;12.152;2023-12-20T12:32:09;6.40;99.90
24802;DHT22;12898;50.520;12.152;2023-12-20T12:34:38;6.40;99.90
24802;DHT22;12898;50.520;12.152;2023-12-20T12:37:05;6.40;99.90
24802;DHT22;12898;50.520;12.152;2023-12-20T12:39:31;6.30;99.90
24802;DHT22;12898;50.520;12.152;2023-12-20T12:41:57;6.30;99.90
24802;DHT22;12898;50.520;12.152;2023-12-20T12:44:23;6.20;99.90
24802;DHT22;12898;50.520;12.152;2023-12-20T12:46:52;6.30;99.90
24802;DHT22;12898;50.520;12.152;2023-12-20T12:49:19;6.40;99.90
24802;DHT22;12898;50.520;12.152;2023-12-20T12:51:47;6.40;99.90
24802;DHT22;12898;50.520;12.152;2023-12-20T12:54:13;6.40;99.90
24802;DHT22;12898;50.520;12.152;2023-12-20T12:56:41;6.30;99.90
24802;DHT22;12898;50.520;12.152;2023-12-20T12:59:06;6.00;99.90
24802;DHT22;12898;50.520;12.152;2023-12-20T13:01:32;5.80;99.90
24802;DHT22;12898;50.520;12.152;2023-12-20T13:03:58;5.60;99.90
24802;DHT22;12898;50.520;12.152;2023-12-20T13:06:24;5.50;99.90
24802;DHT22;12898;50.520;12.152;2023-12-20T13:08:50;5.40;99.90
24802;DHT22;12898;50.520;12.152;2023-12-20T13:11:15;5.40;99.90
24802;DHT22;12898;50.520;12.152;2023-12-20T13:13:41;5.40;99.90
24802;DHT22;12898;50.520;12.152;2023-12-20T13:16:07;5.40;99.90
24802;DHT22;12898;50.520;12.152;2023-12-20T13:18:33;5.40;99.90
24802;DHT22;12898;50.520;12.152;2023-12-20T13:20:59;5.30;99.90
24802;DHT22;12898;50.520;12.152;2023-12-20T13:23:25;5.30;99.90
24802;DHT22;12898;50.520;12.152;2023-12-20T13:25:50;5.20;99.90
24802;DHT22;12898;50.520;12.152;2023-12-20T13:28:16;5.10;99.90
24802;DHT22;12898;50.520;12.152;2023-12-20T13:30:42;5.10;99.90
24802;DHT22;12898;50.520;12.152;2023-12-20T13:33:08;5.20;99.90
24802;DHT22;12898;50.520;12.152;2023-12-20T13:35:34;5.20;99.90
24802;DHT22;12898;50.520;12.152;2023-12-20T13:38:00;5.30;99.90
24802;DHT22;12898;50.520;12.152;2023-12-20T13:40:26;5.30;99.90
24802;DHT22;12898;50.520;12.152;2023-12-20T13:42:53;5.30;99.90
24802;DHT22;12898;50.520;12.152;2023-12-20T13:45:20;5.20;99.90
24802;DHT22;12898;50.520;12.152;2023-12-20T13:47:46;5.10;99.90
24802;DHT22;12898;50.520;12.152;2023-12-20T13:50:11;5.20;99.90
24802;DHT22;12898;50.520;12.152;2023-12-20T13:52:38;5.20;99.90
24802;DHT22;12898;50.520;12.152;2023-12-20T13:55:04;5.10;99.90
24802;DHT22;12898;50.520;12.152;2023-12-20T13:57:31;5.10;99.90
24802;DHT22;12898;50.520;12.152;2023-12-20T13:59:57;5.00;99.90
24802;DHT22;12898;50.520;12.152;2023-12-20T14:02:23;4.90;99.90
24802;DHT22;12898;50.520;12.152;2023-12-20T14:04:49;4.80;99.90
24802;DHT22;12898;50.520;12.152;2023-12-20T14:07:15;4.80;99.90
24802;DHT22;12898;50.520;12.152;2023-12-20T14:09:41;4.70;99.90
24802;DHT22;12898;50.520;12.152;2023-12-20T14:12:11;4.70;99.90
24802;DHT22;12898;50.520;12.152;2023-12-20T14:14:37;4.60;99.90
24802;DHT22;12898;50.520;12.152;2023-12-20T14:17:03;4.50;99.90
24802;DHT22;12898;50.520;12.152;2023-12-20T14:19:32;4.40;99.90
24802;DHT22;12898;50.520;12.152;2023-12-20T14:21:58;4.40;99.90
24802;DHT22;12898;50.520;12.152;2023-12-20T14:24:27;4.40;99.90
24802;DHT22;12898;50.520;12.152;2023-12-20T14:26:53;4.30;99.90
24802;DHT22;12898;50.520;12.152;2023-12-20T14:29:19;4.30;99.90
24802;DHT22;12898;50.520;12.152;2023-12-20T14:31:45;4.20;99.90
24802;DHT22;12898;50.520;12.152;2023-12-20T14:34:10;4.20;99.90
24802;DHT22;12898;50.520;12.152;2023-12-20T14:36:37;4.20;99.90
24802;DHT22;12898;50.520;12.152;2023-12-20T14:39:03;4.20;99.90
24802;DHT22;12898;50.520;12.152;2023-12-20T14:41:30;4.20;99.90
24802;DHT22;12898;50.520;12.152;2023-12-20T14:43:56;4.20;99.90
24802;DHT22;12898;50.520;12.152;2023-12-20T14:46:22;4.20;99.90
24802;DHT22;12898;50.520;12.152;2023-12-20T14:48:48;4.10;99.90
24802;DHT22;12898;50.520;12.152;2023-12-20T14:51:15;4.10;99.90
24802;DHT22;12898;50.520;12.152;2023-12-20T14:53:41;4.10;99.90
24802;DHT22;12898;50.520;12.152;2023-12-20T14:56:08;4.10;99.90
24802;DHT22;12898;50.520;12.152;2023-12-20T14:58:33;4.10;99.90
24802;DHT22;12898;50.520;12.152;2023-12-20T15:01:00;4.10;99.90
24802;DHT22;12898;50.520;12.152;2023-12-20T15:03:26;4.10;99.90
24802;DHT22;12898;50.520;12.152;2023-12-20T15:05:52;4.10;99.90
24802;DHT22;12898;50.520;12.152;2023-12-20T15:08:17;4.10;99.90
24802;DHT22;12898;50.520;12.152;2023-12-20T15:10:43;4.10;99.90
24802;DHT22;12898;50.520;12.152;2023-12-20T15:13:09;4.10;99.90
24802;DHT22;12898;50.520;12.152;2023-12-20T15:15:35;4.20;99.90
24802;DHT22;12898;50.520;12.152;2023-12-20T15:18:01;4.20;99.90
24802;DHT22;12898;50.520;12.152;2023-12-20T15:20:29;4.20;99.90
24802;DHT22;12898;50.520;12.152;2023-12-20T15:22:55;4.20;99.90
24802;DHT22;12898;50.520;12.152;2023-12-20T15:25:24;4.20;99.90
24802;DHT22;12898;50.520;12.152;2023-12-20T15:27:49;4.20;99.90
24802;DHT22;12898;50.520;12.152;2023-12-20T15:30:21;4.20;99.90
24802;DHT22;12898;50.520;12.152;2023-12-20T15:32:47;4.20;99.90
24802;DHT22;12898;50.520;12.152;2023-12-20T15:35:13;4.20;99.90
24802;DHT22;12898;50.520;12.152;2023-12-20T15:37:39;4.20;99.90
24802;DHT22;12898;50.520;12.152;2023-12-20T15:40:09;4.30;99.90
24802;DHT22;12898;50.520;12.152;2023-12-20T15:42:39;4.20;99.90